sensor_id;sensor_type;location;lat;lon;timestamp;P1;durP1;ratioP1;P2;durP2;ratioP2
11139;SDS011;5624;49.388;11.350;2023-08-21T00:00:16;9.55;;;6.95;;
11139;SDS011;5624;49.388;11.350;2023-08-21T00:02:42;9.80;;;6.90;;
11139;SDS011;5624;49.388;11.350;2023-08-21T00:05:07;11.68;;;8.02;;
11139;SDS011;5624;49.388;11.350;2023-08-21T00:07:34;10.75;;;7.82;;
11139;SDS011;5624;49.388;11.350;2023-08-21T00:09:59;10.32;;;7.45;;
11139;SDS011;5624;49.388;11.350;2023-08-21T00:12:25;10.32;;;7.60;;
11139;SDS011;5624;49.388;11.350;2023-08-21T00:14:50;8.98;;;7.55;;
11139;SDS011;5624;49.388;11.350;2023-08-21T00:17:16;9.15;;;8.30;;
11139;SDS011;5624;49.388;11.350;2023-08-21T00:19:41;8.75;;;7.85;;
11139;SDS011;5624;49.388;11.350;2023-08-21T00:22:07;8.88;;;8.07;;
11139;SDS011;5624;49.388;11.350;2023-08-21T00:24:32;9.85;;;8.48;;
11139;SDS011;5624;49.388;11.350;2023-08-21T00:26:58;9.88;;;8.43;;
11139;SDS011;5624;49.388;11.350;2023-08-21T00:29:23;8.88;;;6.63;;
11139;SDS011;5624;49.388;11.350;2023-08-21T00:31:49;9.15;;;7.07;;
11139;SDS011;5624;49.388;11.350;2023-08-21T00:34:14;11.93;;;7.60;;
11139;SDS011;5624;49.388;11.350;2023-08-21T00:36:40;11.02;;;7.53;;
11139;SDS011;5624;49.388;11.350;2023-08-21T00:39:05;10.25;;;7.70;;
11139;SDS011;5624;49.388;11.350;2023-08-21T00:41:31;9.25;;;8.35;;
11139;SDS011;5624;49.388;11.350;2023-08-21T00:43:59;11.27;;;7.15;;
11139;SDS011;5624;49.388;11.350;2023-08-21T00:46:24;9.20;;;7.70;;
11139;SDS011;5624;49.388;11.350;2023-08-21T00:48:50;8.90;;;8.00;;
11139;SDS011;5624;49.388;11.350;2023-08-21T00:51:17;8.70;;;7.35;;
11139;SDS011;5624;49.388;11.350;2023-08-21T00:53:42;11.40;;;7.95;;
11139;SDS011;5624;49.388;11.350;2023-08-21T00:56:09;8.55;;;7.15;;
11139;SDS011;5624;49.388;11.350;2023-08-21T00:58:35;11.07;;;7.18;;
11139;SDS011;5624;49.388;11.350;2023-08-21T01:01:00;8.73;;;7.82;;
11139;SDS011;5624;49.388;11.350;2023-08-21T01:03:27;9.57;;;8.30;;
11139;SDS011;5624;49.388;11.350;2023-08-21T01:05:54;8.80;;;7.10;;
11139;SDS011;5624;49.388;11.350;2023-08-21T01:08:28;9.18;;;8.27;;
11139;SDS011;5624;49.388;11.350;2023-08-21T01:11:08;8.43;;;7.50;;
11139;SDS011;5624;49.388;11.350;2023-08-21T01:16:48;9.35;;;8.32;;
11139;SDS011;5624;49.388;11.350;2023-08-21T01:19:52;8.63;;;7.82;;
11139;SDS011;5624;49.388;11.350;2023-08-21T01:22:13;11.13;;;7.57;;
11139;SDS011;5624;49.388;11.350;2023-08-21T01:24:38;9.63;;;8.57;;
11139;SDS011;5624;49.388;11.350;2023-08-21T01:27:04;9.63;;;8.65;;
11139;SDS011;5624;49.388;11.350;2023-08-21T01:29:29;8.65;;;7.45;;
11139;SDS011;5624;49.388;11.350;2023-08-21T01:32:06;7.85;;;7.03;;
11139;SDS011;5624;49.388;11.350;2023-08-21T01:34:37;10.30;;;7.05;;
11139;SDS011;5624;49.388;11.350;2023-08-21T01:37:04;12.32;;;7.75;;
11139;SDS011;5624;49.388;11.350;2023-08-21T01:39:30;8.43;;;7.18;;
11139;SDS011;5624;49.388;11.350;2023-08-21T01:41:57;7.90;;;6.70;;
11139;SDS011;5624;49.388;11.350;2023-08-21T01:44:23;12.55;;;7.82;;
11139;SDS011;5624;49.388;11.350;2023-08-21T01:46:49;10.15;;;8.07;;
11139;SDS011;5624;49.388;11.350;2023-08-21T01:49:15;9.13;;;8.23;;
11139;SDS011;5624;49.388;11.350;2023-08-21T01:51:40;8.93;;;8.05;;
11139;SDS011;5624;49.388;11.350;2023-08-21T01:54:06;8.88;;;7.97;;
11139;SDS011;5624;49.388;11.350;2023-08-21T01:56:31;9.73;;;7.90;;
11139;SDS011;5624;49.388;11.350;2023-08-21T01:58:57;10.80;;;8.55;;
11139;SDS011;5624;49.388;11.350;2023-08-21T02:01:22;10.95;;;8.43;;
11139;SDS011;5624;49.388;11.350;2023-08-21T02:03:48;10.07;;;9.00;;
11139;SDS011;5624;49.388;11.350;2023-08-21T02:06:14;9.52;;;8.55;;
11139;SDS011;5624;49.388;11.350;2023-08-21T02:08:39;8.77;;;7.88;;
11139;SDS011;5624;49.388;11.350;2023-08-21T02:11:05;13.07;;;8.55;;
11139;SDS011;5624;49.388;11.350;2023-08-21T02:13:30;10.88;;;9.82;;
11139;SDS011;5624;49.388;11.350;2023-08-21T02:15:57;11.48;;;8.80;;
11139;SDS011;5624;49.388;11.350;2023-08-21T02:18:23;12.30;;;9.02;;
11139;SDS011;5624;49.388;11.350;2023-08-21T02:20:49;11.38;;;8.50;;
11139;SDS011;5624;49.388;11.350;2023-08-21T02:23:14;12.05;;;8.85;;
11139;SDS011;5624;49.388;11.350;2023-08-21T02:25:40;13.63;;;8.70;;
11139;SDS011;5624;49.388;11.350;2023-08-21T02:28:07;13.02;;;9.13;;
11139;SDS011;5624;49.388;11.350;2023-08-21T02:30:33;12.93;;;9.13;;
11139;SDS011;5624;49.388;11.350;2023-08-21T02:32:58;12.32;;;9.60;;
11139;SDS011;5624;49.388;11.350;2023-08-21T02:35:24;10.98;;;9.43;;
11139;SDS011;5624;49.388;11.350;2023-08-21T02:37:50;11.85;;;9.75;;
11139;SDS011;5624;49.388;11.350;2023-08-21T02:40:15;11.35;;;9.13;;
11139;SDS011;5624;49.388;11.350;2023-08-21T02:42:41;11.60;;;9.48;;
11139;SDS011;5624;49.388;11.350;2023-08-21T02:45:06;14.70;;;9.38;;
11139;SDS011;5624;49.388;11.350;2023-08-21T02:47:39;17.67;;;11.20;;
11139;SDS011;5624;49.388;11.350;2023-08-21T02:50:06;12.52;;;10.93;;
11139;SDS011;5624;49.388;11.350;2023-08-21T02:52:33;10.30;;;9.25;;
11139;SDS011;5624;49.388;11.350;2023-08-21T02:54:59;10.75;;;9.32;;
11139;SDS011;5624;49.388;11.350;2023-08-21T02:57:25;10.88;;;9.20;;
11139;SDS011;5624;49.388;11.350;2023-08-21T02:59:52;10.93;;;9.00;;
11139;SDS011;5624;49.388;11.350;2023-08-21T03:02:18;13.88;;;9.93;;
11139;SDS011;5624;49.388;11.350;2023-08-21T03:04:44;10.10;;;9.15;;
11139;SDS011;5624;49.388;11.350;2023-08-21T03:07:09;11.05;;;9.32;;
11139;SDS011;5624;49.388;11.350;2023-08-21T03:09:36;10.80;;;9.73;;
11139;SDS011;5624;49.388;11.350;2023-08-21T03:12:02;11.70;;;7.97;;
11139;SDS011;5624;49.388;11.350;2023-08-21T03:14:28;11.73;;;8.05;;
11139;SDS011;5624;49.388;11.350;2023-08-21T03:16:54;12.15;;;8.32;;
11139;SDS011;5624;49.388;11.350;2023-08-21T03:19:19;10.88;;;8.25;;
11139;SDS011;5624;49.388;11.350;2023-08-21T03:21:45;10.82;;;8.48;;
11139;SDS011;5624;49.388;11.350;2023-08-21T03:24:10;10.35;;;8.18;;
11139;SDS011;5624;49.388;11.350;2023-08-21T03:26:36;11.32;;;8.77;;
11139;SDS011;5624;49.388;11.350;2023-08-21T03:29:01;9.60;;;8.23;;
11139;SDS011;5624;49.388;11.350;2023-08-21T03:31:27;10.55;;;9.55;;
11139;SDS011;5624;49.388;11.350;2023-08-21T03:33:54;10.82;;;9.82;;
11139;SDS011;5624;49.388;11.350;2023-08-21T03:36:19;11.50;;;10.40;;
11139;SDS011;5624;49.388;11.350;2023-08-21T03:38:45;11.52;;;10.38;;
11139;SDS011;5624;49.388;11.350;2023-08-21T03:41:11;10.60;;;9.60;;
11139;SDS011;5624;49.388;11.350;2023-08-21T03:43:37;10.30;;;9.30;;
11139;SDS011;5624;49.388;11.350;2023-08-21T03:46:02;10.55;;;9.65;;
11139;SDS011;5624;49.388;11.350;2023-08-21T03:48:28;10.98;;;8.80;;
11139;SDS011;5624;49.388;11.350;2023-08-21T03:50:54;9.95;;;8.80;;
11139;SDS011;5624;49.388;11.350;2023-08-21T03:53:20;10.18;;;8.82;;
11139;SDS011;5624;49.388;11.350;2023-08-21T03:55:46;9.55;;;8.57;;
11139;SDS011;5624;49.388;11.350;2023-08-21T03:58:11;10.02;;;9.02;;
11139;SDS011;5624;49.388;11.350;2023-08-21T04:00:38;11.55;;;9.13;;
11139;SDS011;5624;49.388;11.350;2023-08-21T04:03:04;10.20;;;8.88;;
11139;SDS011;5624;49.388;11.350;2023-08-21T04:05:29;10.48;;;9.10;;
11139;SDS011;5624;49.388;11.350;2023-08-21T04:07:55;10.43;;;8.98;;
11139;SDS011;5624;49.388;11.350;2023-08-21T04:10:20;11.07;;;8.73;;
11139;SDS011;5624;49.388;11.350;2023-08-21T04:12:46;13.82;;;9.35;;
11139;SDS011;5624;49.388;11.350;2023-08-21T04:15:11;11.73;;;9.13;;
11139;SDS011;5624;49.388;11.350;2023-08-21T04:17:37;10.48;;;9.15;;
11139;SDS011;5624;49.388;11.350;2023-08-21T04:20:03;9.85;;;8.85;;
11139;SDS011;5624;49.388;11.350;2023-08-21T04:22:28;9.98;;;8.98;;
11139;SDS011;5624;49.388;11.350;2023-08-21T04:24:54;10.30;;;8.63;;
11139;SDS011;5624;49.388;11.350;2023-08-21T04:27:19;11.05;;;8.70;;
11139;SDS011;5624;49.388;11.350;2023-08-21T04:29:45;9.88;;;8.88;;
11139;SDS011;5624;49.388;11.350;2023-08-21T04:32:10;11.82;;;9.52;;
11139;SDS011;5624;49.388;11.350;2023-08-21T04:34:37;11.48;;;8.45;;
11139;SDS011;5624;49.388;11.350;2023-08-21T04:37:02;9.85;;;8.85;;
11139;SDS011;5624;49.388;11.350;2023-08-21T04:39:29;9.88;;;8.98;;
11139;SDS011;5624;49.388;11.350;2023-08-21T04:41:55;11.38;;;9.30;;
11139;SDS011;5624;49.388;11.350;2023-08-21T04:44:20;10.80;;;9.60;;
11139;SDS011;5624;49.388;11.350;2023-08-21T04:46:47;10.75;;;9.65;;
11139;SDS011;5624;49.388;11.350;2023-08-21T04:49:14;11.88;;;9.32;;
11139;SDS011;5624;49.388;11.350;2023-08-21T04:51:39;10.50;;;9.45;;
11139;SDS011;5624;49.388;11.350;2023-08-21T04:54:05;12.95;;;9.02;;
11139;SDS011;5624;49.388;11.350;2023-08-21T04:56:31;12.05;;;10.30;;
11139;SDS011;5624;49.388;11.350;2023-08-21T04:58:56;12.00;;;10.45;;
11139;SDS011;5624;49.388;11.350;2023-08-21T05:01:22;13.57;;;10.60;;
11139;SDS011;5624;49.388;11.350;2023-08-21T05:03:47;12.95;;;10.60;;
11139;SDS011;5624;49.388;11.350;2023-08-21T05:06:13;13.65;;;10.10;;
11139;SDS011;5624;49.388;11.350;2023-08-21T05:08:39;10.50;;;9.43;;
11139;SDS011;5624;49.388;11.350;2023-08-21T05:11:04;12.18;;;9.68;;
11139;SDS011;5624;49.388;11.350;2023-08-21T05:13:30;12.45;;;9.63;;
11139;SDS011;5624;49.388;11.350;2023-08-21T05:15:56;11.52;;;9.82;;
11139;SDS011;5624;49.388;11.350;2023-08-21T05:18:23;13.55;;;10.07;;
11139;SDS011;5624;49.388;11.350;2023-08-21T05:20:49;13.90;;;10.20;;
11139;SDS011;5624;49.388;11.350;2023-08-21T05:23:16;12.88;;;9.70;;
11139;SDS011;5624;49.388;11.350;2023-08-21T05:25:42;12.82;;;9.88;;
11139;SDS011;5624;49.388;11.350;2023-08-21T05:28:08;11.88;;;10.35;;
11139;SDS011;5624;49.388;11.350;2023-08-21T05:30:35;12.45;;;10.20;;
11139;SDS011;5624;49.388;11.350;2023-08-21T05:33:01;11.30;;;9.85;;
11139;SDS011;5624;49.388;11.350;2023-08-21T05:35:27;10.82;;;9.73;;
11139;SDS011;5624;49.388;11.350;2023-08-21T05:37:52;12.63;;;10.00;;
11139;SDS011;5624;49.388;11.350;2023-08-21T05:40:18;13.00;;;9.55;;
11139;SDS011;5624;49.388;11.350;2023-08-21T05:42:44;13.95;;;10.27;;
11139;SDS011;5624;49.388;11.350;2023-08-21T05:45:10;13.30;;;10.48;;
11139;SDS011;5624;49.388;11.350;2023-08-21T05:47:35;11.65;;;10.45;;
11139;SDS011;5624;49.388;11.350;2023-08-21T05:50:01;14.82;;;10.32;;
11139;SDS011;5624;49.388;11.350;2023-08-21T05:52:27;13.20;;;11.98;;
11139;SDS011;5624;49.388;11.350;2023-08-21T05:54:52;11.73;;;10.50;;
11139;SDS011;5624;49.388;11.350;2023-08-21T05:57:18;11.05;;;10.13;;
11139;SDS011;5624;49.388;11.350;2023-08-21T05:59:47;13.32;;;9.43;;
11139;SDS011;5624;49.388;11.350;2023-08-21T06:02:13;9.90;;;8.52;;
11139;SDS011;5624;49.388;11.350;2023-08-21T06:04:42;11.32;;;9.13;;
11139;SDS011;5624;49.388;11.350;2023-08-21T06:07:08;11.93;;;9.15;;
11139;SDS011;5624;49.388;11.350;2023-08-21T06:09:34;12.10;;;9.15;;
11139;SDS011;5624;49.388;11.350;2023-08-21T06:12:00;12.55;;;9.07;;
11139;SDS011;5624;49.388;11.350;2023-08-21T06:14:27;14.88;;;9.65;;
11139;SDS011;5624;49.388;11.350;2023-08-21T06:16:56;9.98;;;8.90;;
11139;SDS011;5624;49.388;11.350;2023-08-21T06:19:26;11.48;;;9.20;;
11139;SDS011;5624;49.388;11.350;2023-08-21T06:21:51;10.20;;;9.07;;
11139;SDS011;5624;49.388;11.350;2023-08-21T06:24:17;9.60;;;8.60;;
11139;SDS011;5624;49.388;11.350;2023-08-21T06:26:43;10.93;;;9.60;;
11139;SDS011;5624;49.388;11.350;2023-08-21T06:29:08;11.20;;;9.88;;
11139;SDS011;5624;49.388;11.350;2023-08-21T06:31:34;11.10;;;8.70;;
11139;SDS011;5624;49.388;11.350;2023-08-21T06:33:59;12.00;;;8.70;;
11139;SDS011;5624;49.388;11.350;2023-08-21T06:36:25;13.13;;;9.48;;
11139;SDS011;5624;49.388;11.350;2023-08-21T06:38:51;9.93;;;8.60;;
11139;SDS011;5624;49.388;11.350;2023-08-21T06:41:16;11.75;;;9.38;;
11139;SDS011;5624;49.388;11.350;2023-08-21T06:43:42;14.00;;;9.60;;
11139;SDS011;5624;49.388;11.350;2023-08-21T06:46:07;9.38;;;8.32;;
11139;SDS011;5624;49.388;11.350;2023-08-21T06:48:34;13.45;;;9.48;;
11139;SDS011;5624;49.388;11.350;2023-08-21T06:51:03;9.75;;;8.75;;
11139;SDS011;5624;49.388;11.350;2023-08-21T06:53:28;10.18;;;9.10;;
11139;SDS011;5624;49.388;11.350;2023-08-21T06:55:54;11.23;;;8.25;;
11139;SDS011;5624;49.388;11.350;2023-08-21T06:58:20;9.77;;;8.63;;
11139;SDS011;5624;49.388;11.350;2023-08-21T07:00:46;13.75;;;8.27;;
11139;SDS011;5624;49.388;11.350;2023-08-21T07:03:11;11.40;;;8.88;;
11139;SDS011;5624;49.388;11.350;2023-08-21T07:05:37;9.23;;;8.20;;
11139;SDS011;5624;49.388;11.350;2023-08-21T07:08:03;11.07;;;8.90;;
11139;SDS011;5624;49.388;11.350;2023-08-21T07:10:29;10.30;;;8.00;;
11139;SDS011;5624;49.388;11.350;2023-08-21T07:12:54;12.55;;;8.52;;
11139;SDS011;5624;49.388;11.350;2023-08-21T07:15:20;9.60;;;8.57;;
11139;SDS011;5624;49.388;11.350;2023-08-21T07:17:46;9.95;;;7.88;;
11139;SDS011;5624;49.388;11.350;2023-08-21T07:20:12;9.10;;;8.07;;
11139;SDS011;5624;49.388;11.350;2023-08-21T07:22:37;8.80;;;7.50;;
11139;SDS011;5624;49.388;11.350;2023-08-21T07:25:03;8.68;;;7.35;;
11139;SDS011;5624;49.388;11.350;2023-08-21T07:27:30;10.48;;;7.10;;
11139;SDS011;5624;49.388;11.350;2023-08-21T07:29:56;7.70;;;7.00;;
11139;SDS011;5624;49.388;11.350;2023-08-21T07:32:22;7.93;;;7.03;;
11139;SDS011;5624;49.388;11.350;2023-08-21T07:34:48;8.30;;;7.47;;
11139;SDS011;5624;49.388;11.350;2023-08-21T07:37:17;8.95;;;7.22;;
11139;SDS011;5624;49.388;11.350;2023-08-21T07:39:42;9.85;;;8.00;;
11139;SDS011;5624;49.388;11.350;2023-08-21T07:42:10;8.35;;;7.55;;
11139;SDS011;5624;49.388;11.350;2023-08-21T07:44:36;9.10;;;8.18;;
11139;SDS011;5624;49.388;11.350;2023-08-21T07:47:02;8.52;;;6.90;;
11139;SDS011;5624;49.388;11.350;2023-08-21T07:49:27;8.25;;;7.32;;
11139;SDS011;5624;49.388;11.350;2023-08-21T07:51:53;11.13;;;7.90;;
11139;SDS011;5624;49.388;11.350;2023-08-21T07:54:19;9.75;;;7.57;;
11139;SDS011;5624;49.388;11.350;2023-08-21T07:56:45;8.48;;;7.63;;
11139;SDS011;5624;49.388;11.350;2023-08-21T07:59:10;8.13;;;7.43;;
11139;SDS011;5624;49.388;11.350;2023-08-21T08:01:36;8.65;;;7.60;;
11139;SDS011;5624;49.388;11.350;2023-08-21T08:04:02;8.20;;;7.15;;
11139;SDS011;5624;49.388;11.350;2023-08-21T08:06:27;10.13;;;6.90;;
11139;SDS011;5624;49.388;11.350;2023-08-21T08:08:53;8.10;;;7.32;;
11139;SDS011;5624;49.388;11.350;2023-08-21T08:11:18;10.20;;;7.53;;
11139;SDS011;5624;49.388;11.350;2023-08-21T08:13:44;8.77;;;7.88;;
11139;SDS011;5624;49.388;11.350;2023-08-21T08:16:10;7.85;;;7.10;;
11139;SDS011;5624;49.388;11.350;2023-08-21T08:18:35;8.18;;;7.35;;
11139;SDS011;5624;49.388;11.350;2023-08-21T08:21:01;9.50;;;7.60;;
11139;SDS011;5624;49.388;11.350;2023-08-21T08:23:26;10.00;;;6.95;;
11139;SDS011;5624;49.388;11.350;2023-08-21T08:25:52;8.30;;;7.43;;
11139;SDS011;5624;49.388;11.350;2023-08-21T08:28:18;8.15;;;7.15;;
11139;SDS011;5624;49.388;11.350;2023-08-21T08:30:44;9.55;;;6.97;;
11139;SDS011;5624;49.388;11.350;2023-08-21T08:33:10;7.85;;;7.05;;
11139;SDS011;5624;49.388;11.350;2023-08-21T08:35:36;8.60;;;7.68;;
11139;SDS011;5624;49.388;11.350;2023-08-21T08:38:02;7.38;;;6.68;;
11139;SDS011;5624;49.388;11.350;2023-08-21T08:40:27;8.40;;;7.22;;
11139;SDS011;5624;49.388;11.350;2023-08-21T08:42:53;7.68;;;6.88;;
11139;SDS011;5624;49.388;11.350;2023-08-21T08:45:22;7.13;;;6.43;;
11139;SDS011;5624;49.388;11.350;2023-08-21T08:47:53;7.47;;;6.45;;
11139;SDS011;5624;49.388;11.350;2023-08-21T08:50:19;9.55;;;7.00;;
11139;SDS011;5624;49.388;11.350;2023-08-21T08:52:45;8.27;;;6.95;;
11139;SDS011;5624;49.388;11.350;2023-08-21T08:55:11;7.93;;;6.90;;
11139;SDS011;5624;49.388;11.350;2023-08-21T08:57:37;8.13;;;6.95;;
11139;SDS011;5624;49.388;11.350;2023-08-21T09:00:02;11.50;;;6.97;;
11139;SDS011;5624;49.388;11.350;2023-08-21T09:02:29;8.13;;;6.85;;
11139;SDS011;5624;49.388;11.350;2023-08-21T09:04:55;9.73;;;6.70;;
11139;SDS011;5624;49.388;11.350;2023-08-21T09:07:20;8.43;;;7.63;;
11139;SDS011;5624;49.388;11.350;2023-08-21T09:09:46;7.75;;;7.00;;
11139;SDS011;5624;49.388;11.350;2023-08-21T09:12:14;7.50;;;6.80;;
11139;SDS011;5624;49.388;11.350;2023-08-21T09:14:41;8.45;;;5.97;;
11139;SDS011;5624;49.388;11.350;2023-08-21T09:17:07;6.93;;;6.32;;
11139;SDS011;5624;49.388;11.350;2023-08-21T09:19:33;7.57;;;6.43;;
11139;SDS011;5624;49.388;11.350;2023-08-21T09:22:07;6.65;;;6.05;;
11139;SDS011;5624;49.388;11.350;2023-08-21T09:24:33;7.68;;;6.40;;
11139;SDS011;5624;49.388;11.350;2023-08-21T09:26:59;11.23;;;6.65;;
11139;SDS011;5624;49.388;11.350;2023-08-21T09:29:26;9.55;;;6.45;;
11139;SDS011;5624;49.388;11.350;2023-08-21T09:32:02;7.93;;;6.15;;
11139;SDS011;5624;49.388;11.350;2023-08-21T09:34:33;9.52;;;6.30;;
11139;SDS011;5624;49.388;11.350;2023-08-21T09:36:59;6.85;;;5.68;;
11139;SDS011;5624;49.388;11.350;2023-08-21T09:39:25;6.00;;;5.20;;
11139;SDS011;5624;49.388;11.350;2023-08-21T09:41:58;5.65;;;5.00;;
11139;SDS011;5624;49.388;11.350;2023-08-21T09:44:24;6.65;;;5.10;;
11139;SDS011;5624;49.388;11.350;2023-08-21T09:46:50;8.48;;;4.88;;
11139;SDS011;5624;49.388;11.350;2023-08-21T09:49:16;7.05;;;5.15;;
11139;SDS011;5624;49.388;11.350;2023-08-21T09:51:43;7.28;;;6.20;;
11139;SDS011;5624;49.388;11.350;2023-08-21T09:54:10;6.13;;;5.47;;
11139;SDS011;5624;49.388;11.350;2023-08-21T09:56:37;7.60;;;6.10;;
11139;SDS011;5624;49.388;11.350;2023-08-21T09:59:02;9.93;;;6.05;;
11139;SDS011;5624;49.388;11.350;2023-08-21T10:01:28;5.63;;;5.00;;
11139;SDS011;5624;49.388;11.350;2023-08-21T10:03:58;6.22;;;5.57;;
11139;SDS011;5624;49.388;11.350;2023-08-21T10:06:28;7.07;;;4.57;;
11139;SDS011;5624;49.388;11.350;2023-08-21T10:08:54;6.63;;;5.05;;
11139;SDS011;5624;49.388;11.350;2023-08-21T10:11:21;4.78;;;4.30;;
11139;SDS011;5624;49.388;11.350;2023-08-21T10:13:47;8.57;;;5.15;;
11139;SDS011;5624;49.388;11.350;2023-08-21T10:16:18;7.03;;;5.43;;
11139;SDS011;5624;49.388;11.350;2023-08-21T10:18:46;6.18;;;4.72;;
11139;SDS011;5624;49.388;11.350;2023-08-21T10:23:40;6.05;;;5.07;;
11139;SDS011;5624;49.388;11.350;2023-08-21T10:26:07;7.55;;;5.47;;
11139;SDS011;5624;49.388;11.350;2023-08-21T10:28:56;7.82;;;5.55;;
11139;SDS011;5624;49.388;11.350;2023-08-21T10:34:06;8.88;;;5.35;;
11139;SDS011;5624;49.388;11.350;2023-08-21T10:37:02;8.65;;;5.70;;
11139;SDS011;5624;49.388;11.350;2023-08-21T10:39:29;5.65;;;4.90;;
11139;SDS011;5624;49.388;11.350;2023-08-21T10:44:37;9.45;;;5.65;;
11139;SDS011;5624;49.388;11.350;2023-08-21T10:50:05;7.55;;;5.45;;
11139;SDS011;5624;49.388;11.350;2023-08-21T10:52:38;6.82;;;4.55;;
11139;SDS011;5624;49.388;11.350;2023-08-21T10:55:10;8.20;;;5.60;;
11139;SDS011;5624;49.388;11.350;2023-08-21T10:57:37;10.02;;;5.70;;
11139;SDS011;5624;49.388;11.350;2023-08-21T11:00:04;7.57;;;5.30;;
11139;SDS011;5624;49.388;11.350;2023-08-21T11:02:42;5.85;;;5.20;;
11139;SDS011;5624;49.388;11.350;2023-08-21T11:05:08;8.88;;;5.55;;
11139;SDS011;5624;49.388;11.350;2023-08-21T11:07:39;7.93;;;5.70;;
11139;SDS011;5624;49.388;11.350;2023-08-21T11:10:10;7.20;;;5.10;;
11139;SDS011;5624;49.388;11.350;2023-08-21T11:12:38;7.82;;;5.53;;
11139;SDS011;5624;49.388;11.350;2023-08-21T11:15:14;7.15;;;5.40;;
11139;SDS011;5624;49.388;11.350;2023-08-21T11:17:41;8.73;;;5.72;;
11139;SDS011;5624;49.388;11.350;2023-08-21T11:20:07;7.97;;;5.72;;
11139;SDS011;5624;49.388;11.350;2023-08-21T11:22:33;6.85;;;5.75;;
11139;SDS011;5624;49.388;11.350;2023-08-21T11:24:59;9.15;;;5.75;;
11139;SDS011;5624;49.388;11.350;2023-08-21T11:27:25;6.45;;;5.60;;
11139;SDS011;5624;49.388;11.350;2023-08-21T11:29:51;8.93;;;6.00;;
11139;SDS011;5624;49.388;11.350;2023-08-21T11:32:19;6.70;;;5.60;;
11139;SDS011;5624;49.388;11.350;2023-08-21T11:34:47;7.68;;;6.18;;
11139;SDS011;5624;49.388;11.350;2023-08-21T11:37:18;6.38;;;5.78;;
11139;SDS011;5624;49.388;11.350;2023-08-21T11:39:47;6.85;;;5.70;;
11139;SDS011;5624;49.388;11.350;2023-08-21T11:42:15;6.22;;;5.70;;
11139;SDS011;5624;49.388;11.350;2023-08-21T11:44:41;8.20;;;6.25;;
11139;SDS011;5624;49.388;11.350;2023-08-21T11:47:09;8.90;;;6.10;;
11139;SDS011;5624;49.388;11.350;2023-08-21T11:49:36;9.60;;;6.55;;
11139;SDS011;5624;49.388;11.350;2023-08-21T11:52:02;9.20;;;6.15;;
11139;SDS011;5624;49.388;11.350;2023-08-21T11:54:32;6.63;;;5.82;;
11139;SDS011;5624;49.388;11.350;2023-08-21T11:56:58;7.95;;;5.57;;
11139;SDS011;5624;49.388;11.350;2023-08-21T11:59:24;10.40;;;5.78;;
11139;SDS011;5624;49.388;11.350;2023-08-21T12:01:50;9.52;;;6.28;;
11139;SDS011;5624;49.388;11.350;2023-08-21T12:04:16;8.68;;;5.70;;
11139;SDS011;5624;49.388;11.350;2023-08-21T12:06:43;8.75;;;5.53;;
11139;SDS011;5624;49.388;11.350;2023-08-21T12:09:09;8.30;;;5.75;;
11139;SDS011;5624;49.388;11.350;2023-08-21T12:11:35;6.22;;;5.63;;
11139;SDS011;5624;49.388;11.350;2023-08-21T12:14:03;8.27;;;6.20;;
11139;SDS011;5624;49.388;11.350;2023-08-21T12:16:29;8.73;;;6.35;;
11139;SDS011;5624;49.388;11.350;2023-08-21T12:18:54;8.38;;;6.25;;
11139;SDS011;5624;49.388;11.350;2023-08-21T12:21:22;6.70;;;5.55;;
11139;SDS011;5624;49.388;11.350;2023-08-21T12:23:48;7.45;;;6.22;;
11139;SDS011;5624;49.388;11.350;2023-08-21T12:26:14;7.78;;;6.03;;
11139;SDS011;5624;49.388;11.350;2023-08-21T12:28:49;6.90;;;6.25;;
11139;SDS011;5624;49.388;11.350;2023-08-21T12:31:15;10.57;;;6.15;;
11139;SDS011;5624;49.388;11.350;2023-08-21T12:33:40;7.15;;;6.00;;
11139;SDS011;5624;49.388;11.350;2023-08-21T12:36:06;8.80;;;6.30;;
11139;SDS011;5624;49.388;11.350;2023-08-21T12:38:33;6.85;;;5.22;;
11139;SDS011;5624;49.388;11.350;2023-08-21T12:40:59;7.68;;;6.50;;
11139;SDS011;5624;49.388;11.350;2023-08-21T12:43:26;6.88;;;5.50;;
11139;SDS011;5624;49.388;11.350;2023-08-21T12:45:51;10.77;;;6.85;;
11139;SDS011;5624;49.388;11.350;2023-08-21T12:48:17;9.40;;;6.55;;
11139;SDS011;5624;49.388;11.350;2023-08-21T12:50:42;7.75;;;6.00;;
11139;SDS011;5624;49.388;11.350;2023-08-21T12:53:08;7.85;;;6.50;;
11139;SDS011;5624;49.388;11.350;2023-08-21T12:55:34;8.93;;;7.05;;
11139;SDS011;5624;49.388;11.350;2023-08-21T12:57:59;8.77;;;6.22;;
11139;SDS011;5624;49.388;11.350;2023-08-21T13:00:25;9.60;;;6.75;;
11139;SDS011;5624;49.388;11.350;2023-08-21T13:02:50;8.75;;;6.70;;
11139;SDS011;5624;49.388;11.350;2023-08-21T13:05:16;9.40;;;7.03;;
11139;SDS011;5624;49.388;11.350;2023-08-21T13:07:42;7.65;;;6.20;;
11139;SDS011;5624;49.388;11.350;2023-08-21T13:10:07;8.50;;;6.18;;
11139;SDS011;5624;49.388;11.350;2023-08-21T13:12:33;8.93;;;6.22;;
11139;SDS011;5624;49.388;11.350;2023-08-21T13:14:59;8.55;;;6.43;;
11139;SDS011;5624;49.388;11.350;2023-08-21T13:17:26;6.70;;;6.03;;
11139;SDS011;5624;49.388;11.350;2023-08-21T13:19:52;8.25;;;6.18;;
11139;SDS011;5624;49.388;11.350;2023-08-21T13:22:17;8.20;;;6.03;;
11139;SDS011;5624;49.388;11.350;2023-08-21T13:24:43;10.18;;;5.50;;
11139;SDS011;5624;49.388;11.350;2023-08-21T13:27:09;8.65;;;5.75;;
11139;SDS011;5624;49.388;11.350;2023-08-21T13:29:35;7.20;;;5.55;;
11139;SDS011;5624;49.388;11.350;2023-08-21T13:32:01;7.70;;;5.68;;
11139;SDS011;5624;49.388;11.350;2023-08-21T13:34:27;8.88;;;5.47;;
11139;SDS011;5624;49.388;11.350;2023-08-21T13:36:53;7.05;;;5.10;;
11139;SDS011;5624;49.388;11.350;2023-08-21T13:39:18;8.90;;;5.50;;
11139;SDS011;5624;49.388;11.350;2023-08-21T13:41:44;6.85;;;5.40;;
11139;SDS011;5624;49.388;11.350;2023-08-21T13:44:09;8.85;;;5.60;;
11139;SDS011;5624;49.388;11.350;2023-08-21T13:46:35;6.97;;;5.60;;
11139;SDS011;5624;49.388;11.350;2023-08-21T13:49:01;11.52;;;5.40;;
11139;SDS011;5624;49.388;11.350;2023-08-21T13:51:27;10.27;;;5.45;;
11139;SDS011;5624;49.388;11.350;2023-08-21T13:53:52;7.75;;;5.78;;
11139;SDS011;5624;49.388;11.350;2023-08-21T13:56:18;6.75;;;5.20;;
11139;SDS011;5624;49.388;11.350;2023-08-21T13:58:43;6.65;;;5.40;;
11139;SDS011;5624;49.388;11.350;2023-08-21T14:01:09;7.35;;;5.60;;
11139;SDS011;5624;49.388;11.350;2023-08-21T14:03:34;8.50;;;5.53;;
11139;SDS011;5624;49.388;11.350;2023-08-21T14:06:00;7.90;;;5.20;;
11139;SDS011;5624;49.388;11.350;2023-08-21T14:08:25;6.72;;;5.53;;
11139;SDS011;5624;49.388;11.350;2023-08-21T14:10:51;6.97;;;5.13;;
11139;SDS011;5624;49.388;11.350;2023-08-21T14:13:17;5.70;;;5.10;;
11139;SDS011;5624;49.388;11.350;2023-08-21T14:15:42;9.88;;;4.97;;
11139;SDS011;5624;49.388;11.350;2023-08-21T14:18:08;8.02;;;5.55;;
11139;SDS011;5624;49.388;11.350;2023-08-21T14:20:33;7.53;;;5.22;;
11139;SDS011;5624;49.388;11.350;2023-08-21T14:22:59;7.35;;;5.15;;
11139;SDS011;5624;49.388;11.350;2023-08-21T14:25:25;8.07;;;5.47;;
11139;SDS011;5624;49.388;11.350;2023-08-21T14:27:51;8.95;;;5.80;;
11139;SDS011;5624;49.388;11.350;2023-08-21T14:30:16;10.02;;;5.68;;
11139;SDS011;5624;49.388;11.350;2023-08-21T14:32:42;9.52;;;5.18;;
11139;SDS011;5624;49.388;11.350;2023-08-21T14:35:08;6.53;;;5.10;;
11139;SDS011;5624;49.388;11.350;2023-08-21T14:37:34;6.28;;;5.45;;
11139;SDS011;5624;49.388;11.350;2023-08-21T14:40:00;11.80;;;5.97;;
11139;SDS011;5624;49.388;11.350;2023-08-21T14:42:31;8.00;;;5.82;;
11139;SDS011;5624;49.388;11.350;2023-08-21T14:44:57;10.00;;;5.95;;
11139;SDS011;5624;49.388;11.350;2023-08-21T14:47:22;9.52;;;5.88;;
11139;SDS011;5624;49.388;11.350;2023-08-21T14:49:48;9.70;;;5.07;;